sensor_id;sensor_type;location;lat;lon;timestamp;pressure;altitude;pressure_sealevel;temperature;humidity
14273;BME280;7220;49.450;11.052;2022-08-04T00:00:07;98011.97;;;25.39;38.50
14273;BME280;7220;49.450;11.052;2022-08-04T00:04:17;98012.66;;;25.32;39.18
14273;BME280;7220;49.450;11.052;2022-08-04T00:08:45;98004.94;;;25.21;38.86
14273;BME280;7220;49.450;11.052;2022-08-04T00:12:50;98007.53;;;25.14;39.51
14273;BME280;7220;49.450;11.052;2022-08-04T00:16:51;98014.50;;;25.09;39.31
14273;BME280;7220;49.450;11.052;2022-08-04T00:20:58;98012.53;;;25.02;39.71
14273;BME280;7220;49.450;11.052;2022-08-04T00:25:01;98012.91;;;24.99;39.79
14273;BME280;7220;49.450;11.052;2022-08-04T00:29:02;98017.34;;;24.92;39.64
14273;BME280;7220;49.450;11.052;2022-08-04T00:33:02;98006.16;;;24.87;40.35
14273;BME280;7220;49.450;11.052;2022-08-04T00:37:04;98013.34;;;24.80;40.00
14273;BME280;7220;49.450;11.052;2022-08-04T00:41:27;98015.25;;;24.71;40.50
14273;BME280;7220;49.450;11.052;2022-08-04T00:45:54;98005.06;;;24.65;40.14
14273;BME280;7220;49.450;11.052;2022-08-04T00:58:26;98022.28;;;24.49;41.02
14273;BME280;7220;49.450;11.052;2022-08-04T01:02:35;98021.44;;;24.40;41.38
14273;BME280;7220;49.450;11.052;2022-08-04T01:07:04;98015.72;;;24.35;41.18
14273;BME280;7220;49.450;11.052;2022-08-04T01:15:27;98013.72;;;24.20;41.78
14273;BME280;7220;49.450;11.052;2022-08-04T01:19:59;98022.38;;;24.16;41.36
14273;BME280;7220;49.450;11.052;2022-08-04T01:33:08;98022.94;;;23.94;42.52
14273;BME280;7220;49.450;11.052;2022-08-04T01:41:43;98025.13;;;23.83;42.77
14273;BME280;7220;49.450;11.052;2022-08-04T01:45:49;98016.81;;;23.76;43.03
14273;BME280;7220;49.450;11.052;2022-08-04T01:49:51;98020.91;;;23.72;43.21
14273;BME280;7220;49.450;11.052;2022-08-04T01:53:52;98020.41;;;23.68;43.32
14273;BME280;7220;49.450;11.052;2022-08-04T01:57:52;98007.69;;;23.60;43.16
14273;BME280;7220;49.450;11.052;2022-08-04T02:01:53;98018.72;;;23.59;43.65
14273;BME280;7220;49.450;11.052;2022-08-04T02:19:14;98020.91;;;23.39;45.03
14273;BME280;7220;49.450;11.052;2022-08-04T02:27:31;98017.88;;;23.34;45.59
14273;BME280;7220;49.450;11.052;2022-08-04T02:35:40;98005.50;;;23.23;45.53
14273;BME280;7220;49.450;11.052;2022-08-04T02:39:46;98006.66;;;23.20;45.77
14273;BME280;7220;49.450;11.052;2022-08-04T02:43:51;98013.59;;;23.14;45.85
14273;BME280;7220;49.450;11.052;2022-08-04T02:47:54;98002.88;;;23.13;46.35
14273;BME280;7220;49.450;11.052;2022-08-04T02:51:57;98007.13;;;23.07;46.04
14273;BME280;7220;49.450;11.052;2022-08-04T02:55:59;97999.50;;;23.03;45.95
14273;BME280;7220;49.450;11.052;2022-08-04T03:00:10;98007.44;;;22.96;46.32
14273;BME280;7220;49.450;11.052;2022-08-04T03:04:22;98000.00;;;22.90;46.42
14273;BME280;7220;49.450;11.052;2022-08-04T03:22:17;98006.22;;;22.82;46.66
14273;BME280;7220;49.450;11.052;2022-08-04T03:40:21;98006.34;;;22.64;47.10
14273;BME280;7220;49.450;11.052;2022-08-04T03:48:21;98010.72;;;22.57;47.92
14273;BME280;7220;49.450;11.052;2022-08-04T04:10:06;98018.28;;;22.45;48.63
14273;BME280;7220;49.450;11.052;2022-08-04T04:14:20;98009.47;;;22.43;48.72
14273;BME280;7220;49.450;11.052;2022-08-04T04:31:42;98002.78;;;22.29;49.37
14273;BME280;7220;49.450;11.052;2022-08-04T04:49:00;98019.88;;;22.29;49.67
14273;BME280;7220;49.450;11.052;2022-08-04T04:53:26;98014.78;;;22.26;50.27
14273;BME280;7220;49.450;11.052;2022-08-04T04:57:30;98014.25;;;22.22;50.41
14273;BME280;7220;49.450;11.052;2022-08-04T05:02:17;98015.78;;;22.25;49.89
14273;BME280;7220;49.450;11.052;2022-08-04T05:14:58;98022.72;;;22.28;50.11
14273;BME280;7220;49.450;11.052;2022-08-04T05:23:28;98031.22;;;22.33;50.31
14273;BME280;7220;49.450;11.052;2022-08-04T05:27:40;98032.31;;;22.40;50.18
14273;BME280;7220;49.450;11.052;2022-08-04T05:31:50;98032.00;;;22.43;50.13
14273;BME280;7220;49.450;11.052;2022-08-04T05:35:56;98035.06;;;22.48;49.73
14273;BME280;7220;49.450;11.052;2022-08-04T05:40:00;98044.41;;;22.54;49.72
14273;BME280;7220;49.450;11.052;2022-08-04T05:44:03;98036.81;;;22.58;49.44
14273;BME280;7220;49.450;11.052;2022-08-04T05:48:06;98031.72;;;22.63;49.73
14273;BME280;7220;49.450;11.052;2022-08-04T05:52:09;98026.84;;;22.66;49.60
14273;BME280;7220;49.450;11.052;2022-08-04T05:56:13;98014.28;;;22.65;49.84
14273;BME280;7220;49.450;11.052;2022-08-04T06:00:15;98023.31;;;22.74;49.56
14273;BME280;7220;49.450;11.052;2022-08-04T06:04:18;98036.03;;;22.82;49.58
14273;BME280;7220;49.450;11.052;2022-08-04T06:08:20;98036.91;;;22.91;49.19
14273;BME280;7220;49.450;11.052;2022-08-04T06:12:24;98035.22;;;22.98;49.20
14273;BME280;7220;49.450;11.052;2022-08-04T06:16:33;98025.75;;;23.10;48.55
14273;BME280;7220;49.450;11.052;2022-08-04T06:20:37;98038.34;;;23.20;48.21
14273;BME280;7220;49.450;11.052;2022-08-04T06:24:40;98011.56;;;23.25;48.44
14273;BME280;7220;49.450;11.052;2022-08-04T06:28:49;98027.53;;;23.36;48.20
14273;BME280;7220;49.450;11.052;2022-08-04T06:32:51;98027.53;;;23.44;48.38
14273;BME280;7220;49.450;11.052;2022-08-04T06:36:57;98035.16;;;23.57;47.97
14273;BME280;7220;49.450;11.052;2022-08-04T06:40:58;98038.19;;;23.71;47.02
14273;BME280;7220;49.450;11.052;2022-08-04T06:45:01;98029.03;;;23.80;46.95
14273;BME280;7220;49.450;11.052;2022-08-04T06:49:03;98036.84;;;23.91;46.34
14273;BME280;7220;49.450;11.052;2022-08-04T06:53:04;98032.94;;;24.02;46.23
14273;BME280;7220;49.450;11.052;2022-08-04T06:57:05;98035.81;;;24.09;45.88
14273;BME280;7220;49.450;11.052;2022-08-04T07:01:06;98050.72;;;24.21;45.32
14273;BME280;7220;49.450;11.052;2022-08-04T07:05:09;98042.03;;;24.34;45.22
14273;BME280;7220;49.450;11.052;2022-08-04T07:09:10;98033.50;;;24.46;44.24
14273;BME280;7220;49.450;11.052;2022-08-04T07:13:10;98030.41;;;24.57;44.11
14273;BME280;7220;49.450;11.052;2022-08-04T07:17:13;98027.31;;;24.68;44.22
14273;BME280;7220;49.450;11.052;2022-08-04T07:21:22;98023.38;;;24.79;44.15
14273;BME280;7220;49.450;11.052;2022-08-04T07:25:23;98028.94;;;24.86;43.86
14273;BME280;7220;49.450;11.052;2022-08-04T07:29:23;98026.66;;;24.98;43.69
14273;BME280;7220;49.450;11.052;2022-08-04T07:33:25;98025.38;;;25.09;43.84
14273;BME280;7220;49.450;11.052;2022-08-04T07:37:26;98024.31;;;25.18;43.32
14273;BME280;7220;49.450;11.052;2022-08-04T07:41:27;98021.53;;;25.26;42.82
14273;BME280;7220;49.450;11.052;2022-08-04T07:45:27;98011.59;;;25.42;41.93
14273;BME280;7220;49.450;11.052;2022-08-04T07:49:29;98010.72;;;25.64;41.39
14273;BME280;7220;49.450;11.052;2022-08-04T07:53:30;98016.22;;;25.79;41.02
14273;BME280;7220;49.450;11.052;2022-08-04T07:57:31;98007.78;;;25.89;40.57
14273;BME280;7220;49.450;11.052;2022-08-04T08:01:36;98015.13;;;26.04;40.58
14273;BME280;7220;49.450;11.052;2022-08-04T08:05:37;98009.03;;;26.17;39.57
14273;BME280;7220;49.450;11.052;2022-08-04T08:09:38;98000.53;;;26.35;39.39
14273;BME280;7220;49.450;11.052;2022-08-04T08:13:39;98000.69;;;26.48;38.97
14273;BME280;7220;49.450;11.052;2022-08-04T08:17:40;98004.44;;;26.62;38.57
14273;BME280;7220;49.450;11.052;2022-08-04T08:21:40;98000.66;;;26.78;37.44
14273;BME280;7220;49.450;11.052;2022-08-04T08:25:45;97995.75;;;26.88;38.02
14273;BME280;7220;49.450;11.052;2022-08-04T08:29:45;97992.91;;;26.97;37.68
14273;BME280;7220;49.450;11.052;2022-08-04T08:33:48;97990.31;;;27.10;37.40
14273;BME280;7220;49.450;11.052;2022-08-04T08:37:53;97998.66;;;27.23;35.99
14273;BME280;7220;49.450;11.052;2022-08-04T08:42:30;97986.72;;;27.46;34.90
14273;BME280;7220;49.450;11.052;2022-08-04T08:55:31;97996.63;;;28.04;33.63
14273;BME280;7220;49.450;11.052;2022-08-04T09:00:08;97990.84;;;28.21;34.02
14273;BME280;7220;49.450;11.052;2022-08-04T09:13:15;97991.31;;;28.66;32.76
14273;BME280;7220;49.450;11.052;2022-08-04T09:17:28;97986.13;;;28.78;32.52
14273;BME280;7220;49.450;11.052;2022-08-04T09:30:09;97984.13;;;29.20;31.34
14273;BME280;7220;49.450;11.052;2022-08-04T09:38:43;97978.06;;;29.52;32.14
14273;BME280;7220;49.450;11.052;2022-08-04T09:46:56;97974.91;;;29.35;33.22
14273;BME280;7220;49.450;11.052;2022-08-04T09:50:58;97978.84;;;29.19;33.52
14273;BME280;7220;49.450;11.052;2022-08-04T09:55:09;97985.56;;;29.09;33.57
14273;BME280;7220;49.450;11.052;2022-08-04T09:59:26;97975.91;;;29.14;32.74
14273;BME280;7220;49.450;11.052;2022-08-04T10:03:35;97964.16;;;29.33;32.68
14273;BME280;7220;49.450;11.052;2022-08-04T10:15:11;97954.81;;;28.94;33.68
14273;BME280;7220;49.450;11.052;2022-08-04T10:19:52;97961.56;;;28.98;33.31
14273;BME280;7220;49.450;11.052;2022-08-04T10:27:58;97933.81;;;29.28;32.37
14273;BME280;7220;49.450;11.052;2022-08-04T10:36:21;97933.22;;;29.53;32.18
14273;BME280;7220;49.450;11.052;2022-08-04T10:40:29;97928.38;;;29.62;30.79
14273;BME280;7220;49.450;11.052;2022-08-04T10:44:48;97924.56;;;29.83;30.34
14273;BME280;7220;49.450;11.052;2022-08-04T10:49:08;97920.34;;;30.00;30.01
14273;BME280;7220;49.450;11.052;2022-08-04T10:53:12;97916.53;;;30.08;30.61
14273;BME280;7220;49.450;11.052;2022-08-04T10:57:28;97919.47;;;30.06;30.09
14273;BME280;7220;49.450;11.052;2022-08-04T11:01:36;97902.59;;;30.10;30.54
14273;BME280;7220;49.450;11.052;2022-08-04T11:05:55;97905.50;;;30.28;29.24
14273;BME280;7220;49.450;11.052;2022-08-04T11:09:55;97899.31;;;30.40;29.68
14273;BME280;7220;49.450;11.052;2022-08-04T11:22:47;97906.09;;;31.14;28.41
14273;BME280;7220;49.450;11.052;2022-08-04T11:26:57;97899.59;;;32.59;26.64
14273;BME280;7220;49.450;11.052;2022-08-04T11:31:12;97903.25;;;33.68;25.60
14273;BME280;7220;49.450;11.052;2022-08-04T11:35:27;97906.50;;;34.53;23.41
14273;BME280;7220;49.450;11.052;2022-08-04T11:43:42;97906.47;;;35.57;23.22
14273;BME280;7220;49.450;11.052;2022-08-04T11:47:50;97899.53;;;36.11;21.67
14273;BME280;7220;49.450;11.052;2022-08-04T11:51:55;97911.69;;;36.76;21.37
14273;BME280;7220;49.450;11.052;2022-08-04T11:55:59;97915.50;;;37.52;20.74
14273;BME280;7220;49.450;11.052;2022-08-04T12:00:06;97896.44;;;38.04;19.43
14273;BME280;7220;49.450;11.052;2022-08-04T12:04:27;97899.75;;;38.54;19.17
14273;BME280;7220;49.450;11.052;2022-08-04T12:08:57;97882.94;;;38.92;18.91
14273;BME280;7220;49.450;11.052;2022-08-04T12:13:19;97884.03;;;39.06;18.56
14273;BME280;7220;49.450;11.052;2022-08-04T12:17:31;97888.50;;;39.23;18.85
14273;BME280;7220;49.450;11.052;2022-08-04T12:25:40;97866.81;;;39.82;18.72
14273;BME280;7220;49.450;11.052;2022-08-04T12:29:45;97873.97;;;40.03;17.81
14273;BME280;7220;49.450;11.052;2022-08-04T12:34:07;97871.72;;;40.11;17.00
14273;BME280;7220;49.450;11.052;2022-08-04T12:38:10;97872.56;;;40.06;17.34
14273;BME280;7220;49.450;11.052;2022-08-04T12:42:21;97867.28;;;40.20;17.50
14273;BME280;7220;49.450;11.052;2022-08-04T12:46:25;97869.69;;;40.37;17.21
14273;BME280;7220;49.450;11.052;2022-08-04T12:50:27;97874.06;;;40.59;17.05
14273;BME280;7220;49.450;11.052;2022-08-04T12:54:29;97858.38;;;40.73;16.97
14273;BME280;7220;49.450;11.052;2022-08-04T12:58:44;97855.50;;;40.89;16.14
14273;BME280;7220;49.450;11.052;2022-08-04T13:02:46;97855.09;;;41.06;16.63
14273;BME280;7220;49.450;11.052;2022-08-04T13:07:02;97845.19;;;41.24;16.63
14273;BME280;7220;49.450;11.052;2022-08-04T13:11:04;97839.72;;;41.43;16.56
14273;BME280;7220;49.450;11.052;2022-08-04T13:15:12;97831.44;;;41.67;16.59
14273;BME280;7220;49.450;11.052;2022-08-04T13:19:14;97833.97;;;41.93;16.55
14273;BME280;7220;49.450;11.052;2022-08-04T13:23:16;97828.00;;;42.00;16.29
14273;BME280;7220;49.450;11.052;2022-08-04T13:27:18;97814.38;;;42.17;16.30
14273;BME280;7220;49.450;11.052;2022-08-04T13:31:22;97810.59;;;42.51;16.19
14273;BME280;7220;49.450;11.052;2022-08-04T13:35:24;97813.53;;;42.98;15.36
14273;BME280;7220;49.450;11.052;2022-08-04T13:39:27;97816.78;;;43.39;16.30
14273;BME280;7220;49.450;11.052;2022-08-04T13:43:55;97800.50;;;43.41;15.30
14273;BME280;7220;49.450;11.052;2022-08-04T13:47:58;97808.91;;;43.41;14.95
14273;BME280;7220;49.450;11.052;2022-08-04T13:52:02;97795.38;;;43.62;15.03
14273;BME280;7220;49.450;11.052;2022-08-04T13:56:07;97792.97;;;43.55;16.09
14273;BME280;7220;49.450;11.052;2022-08-04T14:00:10;97794.78;;;43.18;15.42
14273;BME280;7220;49.450;11.052;2022-08-04T14:04:19;97793.78;;;42.76;16.45
14273;BME280;7220;49.450;11.052;2022-08-04T14:08:25;97780.69;;;42.52;16.05
14273;BME280;7220;49.450;11.052;2022-08-04T14:12:27;97779.31;;;42.30;16.04
14273;BME280;7220;49.450;11.052;2022-08-04T14:16:27;97772.19;;;42.00;17.83
14273;BME280;7220;49.450;11.052;2022-08-04T14:20:28;97776.91;;;41.26;17.40
14273;BME280;7220;49.450;11.052;2022-08-04T14:24:28;97772.84;;;41.13;17.05
14273;BME280;7220;49.450;11.052;2022-08-04T14:28:30;97771.91;;;41.23;16.76
14273;BME280;7220;49.450;11.052;2022-08-04T14:32:31;97763.84;;;40.87;16.79
14273;BME280;7220;49.450;11.052;2022-08-04T14:36:39;97759.91;;;41.23;16.61
14273;BME280;7220;49.450;11.052;2022-08-04T14:40:41;97754.88;;;41.54;16.44
14273;BME280;7220;49.450;11.052;2022-08-04T14:44:57;97761.75;;;41.86;15.93
14273;BME280;7220;49.450;11.052;2022-08-04T14:49:06;97748.03;;;42.14;16.04
14273;BME280;7220;49.450;11.052;2022-08-04T14:53:12;97753.50;;;42.00;15.88
14273;BME280;7220;49.450;11.052;2022-08-04T14:57:14;97752.50;;;41.91;15.64
14273;BME280;7220;49.450;11.052;2022-08-04T15:01:15;97743.09;;;41.33;16.33
14273;BME280;7220;49.450;11.052;2022-08-04T15:05:19;97745.13;;;40.58;16.79
14273;BME280;7220;49.450;11.052;2022-08-04T15:09:20;97744.28;;;40.13;17.16
14273;BME280;7220;49.450;11.052;2022-08-04T15:13:21;97750.00;;;39.77;17.60
14273;BME280;7220;49.450;11.052;2022-08-04T15:17:22;97740.06;;;39.55;17.99
14273;BME280;7220;49.450;11.052;2022-08-04T15:21:24;97738.47;;;39.33;18.11
14273;BME280;7220;49.450;11.052;2022-08-04T15:25:27;97729.56;;;39.05;18.10
14273;BME280;7220;49.450;11.052;2022-08-04T15:33:34;97732.66;;;38.83;17.74
14273;BME280;7220;49.450;11.052;2022-08-04T15:42:15;97721.81;;;38.50;18.56
14273;BME280;7220;49.450;11.052;2022-08-04T15:59:58;97707.91;;;38.71;18.11
14273;BME280;7220;49.450;11.052;2022-08-04T16:04:19;97711.53;;;38.51;18.90
14273;BME280;7220;49.450;11.052;2022-08-04T16:08:20;97705.97;;;38.46;18.53
14273;BME280;7220;49.450;11.052;2022-08-04T16:12:51;97706.22;;;38.29;18.35
14273;BME280;7220;49.450;11.052;2022-08-04T16:16:52;97698.41;;;38.15;18.17
14273;BME280;7220;49.450;11.052;2022-08-04T16:20:54;97701.19;;;38.10;18.33
14273;BME280;7220;49.450;11.052;2022-08-04T16:24:59;97698.41;;;38.10;17.98
14273;BME280;7220;49.450;11.052;2022-08-04T16:29:00;97705.59;;;38.06;17.95
14273;BME280;7220;49.450;11.052;2022-08-04T16:33:00;97696.19;;;38.07;18.40
14273;BME280;7220;49.450;11.052;2022-08-04T16:37:03;97686.50;;;38.20;17.99
14273;BME280;7220;49.450;11.052;2022-08-04T16:41:04;97692.66;;;38.38;17.90
14273;BME280;7220;49.450;11.052;2022-08-04T16:49:07;97681.00;;;38.41;18.41
14273;BME280;7220;49.450;11.052;2022-08-04T16:53:09;97681.00;;;38.46;18.11
14273;BME280;7220;49.450;11.052;2022-08-04T16:57:10;97680.16;;;38.97;17.61
14273;BME280;7220;49.450;11.052;2022-08-04T17:01:13;97688.38;;;39.43;17.17
14273;BME280;7220;49.450;11.052;2022-08-04T17:05:22;97675.25;;;40.15;18.12
14273;BME280;7220;49.450;11.052;2022-08-04T17:09:22;97687.69;;;40.67;16.08
14273;BME280;7220;49.450;11.052;2022-08-04T17:17:25;97671.66;;;40.54;17.01
14273;BME280;7220;49.450;11.052;2022-08-04T17:21:28;97661.06;;;39.61;17.06
14273;BME280;7220;49.450;11.052;2022-08-04T17:25:29;97661.25;;;38.99;17.43
14273;BME280;7220;49.450;11.052;2022-08-04T17:29:30;97656.28;;;38.55;17.52
14273;BME280;7220;49.450;11.052;2022-08-04T17:33:30;97653.78;;;38.17;17.98
14273;BME280;7220;49.450;11.052;2022-08-04T17:37:31;97643.16;;;37.88;18.37
14273;BME280;7220;49.450;11.052;2022-08-04T17:41:34;97645.81;;;37.52;19.36
14273;BME280;7220;49.450;11.052;2022-08-04T17:45:34;97645.91;;;37.14;19.53
14273;BME280;7220;49.450;11.052;2022-08-04T17:49:35;97658.44;;;36.84;20.32
14273;BME280;7220;49.450;11.052;2022-08-04T17:53:35;97659.97;;;36.65;20.24
14273;BME280;7220;49.450;11.052;2022-08-04T17:57:36;97657.81;;;36.39;20.63
14273;BME280;7220;49.450;11.052;2022-08-04T18:01:45;97656.16;;;36.11;21.19
14273;BME280;7220;49.450;11.052;2022-08-04T18:05:46;97659.81;;;35.89;21.38
14273;BME280;7220;49.450;11.052;2022-08-04T18:13:52;97668.19;;;35.50;21.71
14273;BME280;7220;49.450;11.052;2022-08-04T18:17:53;97667.06;;;35.29;22.12
14273;BME280;7220;49.450;11.052;2022-08-04T18:21:53;97665.44;;;35.11;22.63
14273;BME280;7220;49.450;11.052;2022-08-04T18:25:54;97657.97;;;34.89;23.01
14273;BME280;7220;49.450;11.052;2022-08-04T18:29:57;97669.22;;;34.70;23.54
14273;BME280;7220;49.450;11.052;2022-08-04T18:33:58;97662.31;;;34.51;23.57
14273;BME280;7220;49.450;11.052;2022-08-04T18:38:00;97662.25;;;34.34;23.53
14273;BME280;7220;49.450;11.052;2022-08-04T18:42:01;97665.16;;;34.10;28.63
14273;BME280;7220;49.450;11.052;2022-08-04T18:46:01;97665.13;;;33.64;28.51
14273;BME280;7220;49.450;11.052;2022-08-04T18:50:02;97674.75;;;33.38;28.43
14273;BME280;7220;49.450;11.052;2022-08-04T18:54:04;97674.66;;;33.21;28.15
14273;BME280;7220;49.450;11.052;2022-08-04T18:58:05;97668.22;;;33.03;26.65
14273;BME280;7220;49.450;11.052;2022-08-04T19:02:05;97685.69;;;32.97;26.22
14273;BME280;7220;49.450;11.052;2022-08-04T19:06:06;97690.38;;;32.84;26.47
14273;BME280;7220;49.450;11.052;2022-08-04T19:10:07;97689.63;;;32.77;26.38
14273;BME280;7220;49.450;11.052;2022-08-04T19:14:07;97684.94;;;32.66;25.90
14273;BME280;7220;49.450;11.052;2022-08-04T19:18:08;97689.38;;;32.55;26.50
14273;BME280;7220;49.450;11.052;2022-08-04T19:22:08;97692.69;;;32.45;26.46
14273;BME280;7220;49.450;11.052;2022-08-04T19:26:09;97703.19;;;32.36;26.80
14273;BME280;7220;49.450;11.052;2022-08-04T19:30:09;97695.34;;;32.21;28.69
14273;BME280;7220;49.450;11.052;2022-08-04T19:34:10;97717.44;;;32.15;28.12
14273;BME280;7220;49.450;11.052;2022-08-04T19:38:10;97714.03;;;32.01;28.03
14273;BME280;7220;49.450;11.052;2022-08-04T19:42:11;97714.38;;;31.92;27.36
14273;BME280;7220;49.450;11.052;2022-08-04T19:46:12;97722.94;;;31.84;27.76
14273;BME280;7220;49.450;11.052;2022-08-04T19:50:13;97727.06;;;31.75;30.65
14273;BME280;7220;49.450;11.052;2022-08-04T19:54:14;97727.06;;;31.56;31.03
14273;BME280;7220;49.450;11.052;2022-08-04T19:58:15;97726.81;;;31.39;29.84
14273;BME280;7220;49.450;11.052;2022-08-04T20:02:15;97737.50;;;31.29;29.17
14273;BME280;7220;49.450;11.052;2022-08-04T20:06:16;97730.19;;;31.23;28.76
14273;BME280;7220;49.450;11.052;2022-08-04T20:10:17;97744.38;;;31.20;29.21
14273;BME280;7220;49.450;11.052;2022-08-04T20:14:17;97733.44;;;31.13;28.37
14273;BME280;7220;49.450;11.052;2022-08-04T20:18:18;97742.31;;;31.15;28.61
14273;BME280;7220;49.450;11.052;2022-08-04T20:22:18;97738.31;;;31.11;28.38
14273;BME280;7220;49.450;11.052;2022-08-04T20:26:21;97730.34;;;31.03;28.34
14273;BME280;7220;49.450;11.052;2022-08-04T20:30:21;97750.59;;;31.02;28.83
14273;BME280;7220;49.450;11.052;2022-08-04T20:34:23;97741.00;;;30.92;29.11
14273;BME280;7220;49.450;11.052;2022-08-04T20:38:23;97736.88;;;30.83;28.84
14273;BME280;7220;49.450;11.052;2022-08-04T20:42:25;97739.66;;;30.76;28.87
14273;BME280;7220;49.450;11.052;2022-08-04T20:46:26;97741.41;;;30.71;28.97
14273;BME280;7220;49.450;11.052;2022-08-04T20:50:28;97741.22;;;30.65;29.51
14273;BME280;7220;49.450;11.052;2022-08-04T20:54:28;97736.66;;;30.59;29.23
14273;BME280;7220;49.450;11.052;2022-08-04T20:58:29;97741.34;;;30.52;29.63
14273;BME280;7220;49.450;11.052;2022-08-04T21:02:29;97733.75;;;30.47;31.59
14273;BME280;7220;49.450;11.052;2022-08-04T21:06:30;97743.97;;;30.33;33.50
14273;BME280;7220;49.450;11.052;2022-08-04T21:10:30;97744.13;;;30.06;33.77
14273;BME280;7220;49.450;11.052;2022-08-04T21:14:31;97751.34;;;29.87;33.75
14273;BME280;7220;49.450;11.052;2022-08-04T21:18:32;97750.56;;;29.73;32.23
14273;BME280;7220;49.450;11.052;2022-08-04T21:22:32;97743.22;;;29.67;31.74
14273;BME280;7220;49.450;11.052;2022-08-04T21:26:33;97747.03;;;29.66;32.15
14273;BME280;7220;49.450;11.052;2022-08-04T21:30:34;97740.94;;;29.64;32.18
14273;BME280;7220;49.450;11.052;2022-08-04T21:34:34;97746.84;;;29.61;31.91
14273;BME280;7220;49.450;11.052;2022-08-04T21:38:35;97745.56;;;29.57;32.37
14273;BME280;7220;49.450;11.052;2022-08-04T21:42:35;97755.28;;;29.53;31.99
14273;BME280;7220;49.450;11.052;2022-08-04T21:46:36;97747.31;;;29.45;32.29
14273;BME280;7220;49.450;11.052;2022-08-04T21:50:36;97752.38;;;29.41;32.69
14273;BME280;7220;49.450;11.052;2022-08-04T21:54:37;97756.16;;;29.33;32.74
14273;BME280;7220;49.450;11.052;2022-08-04T21:58:38;97740.81;;;29.25;31.96
14273;BME280;7220;49.450;11.052;2022-08-04T22:02:41;97751.97;;;29.24;32.19
14273;BME280;7220;49.450;11.052;2022-08-04T22:06:42;97736.38;;;29.18;32.29
14273;BME280;7220;49.450;11.052;2022-08-04T22:10:42;97737.25;;;29.11;32.89
14273;BME280;7220;49.450;11.052;2022-08-04T22:14:43;97750.94;;;29.05;33.33
14273;BME280;7220;49.450;11.052;2022-08-04T22:18:43;97754.31;;;29.00;33.41
14273;BME280;7220;49.450;11.052;2022-08-04T22:22:44;97757.28;;;28.92;32.79
14273;BME280;7220;49.450;11.052;2022-08-04T22:26:44;97744.88;;;28.83;33.06
14273;BME280;7220;49.450;11.052;2022-08-04T22:30:45;97749.91;;;28.79;33.49
14273;BME280;7220;49.450;11.052;2022-08-04T22:34:47;97747.19;;;28.72;33.44
14273;BME280;7220;49.450;11.052;2022-08-04T22:38:47;97751.56;;;28.67;33.69
14273;BME280;7220;49.450;11.052;2022-08-04T22:42:48;97742.72;;;28.58;34.13
14273;BME280;7220;49.450;11.052;2022-08-04T22:46:48;97745.22;;;28.53;34.60
14273;BME280;7220;49.450;11.052;2022-08-04T22:50:49;97730.53;;;28.47;34.95
14273;BME280;7220;49.450;11.052;2022-08-04T22:54:49;97738.50;;;28.42;34.95
14273;BME280;7220;49.450;11.052;2022-08-04T22:58:50;97736.38;;;28.37;34.39
14273;BME280;7220;49.450;11.052;2022-08-04T23:02:50;97729.03;;;28.31;35.27
14273;BME280;7220;49.450;11.052;2022-08-04T23:06:51;97733.00;;;28.22;35.07
14273;BME280;7220;49.450;11.052;2022-08-04T23:10:53;97735.53;;;28.16;35.58
14273;BME280;7220;49.450;11.052;2022-08-04T23:14:55;97740.78;;;28.11;35.84
14273;BME280;7220;49.450;11.052;2022-08-04T23:18:56;97735.06;;;28.06;35.14
14273;BME280;7220;49.450;11.052;2022-08-04T23:22:57;97724.13;;;27.99;35.36
14273;BME280;7220;49.450;11.052;2022-08-04T23:26:57;97718.25;;;27.96;36.15
14273;BME280;7220;49.450;11.052;2022-08-04T23:30:58;97715.69;;;27.88;36.13
14273;BME280;7220;49.450;11.052;2022-08-04T23:34:58;97716.72;;;27.86;35.92
14273;BME280;7220;49.450;11.052;2022-08-04T23:39:00;97720.47;;;27.79;36.39
14273;BME280;7220;49.450;11.052;2022-08-04T23:43:04;97721.09;;;27.74;36.56
14273;BME280;7220;49.450;11.052;2022-08-04T23:47:05;97717.28;;;27.68;37.28
14273;BME280;7220;49.450;11.052;2022-08-04T23:51:08;97714.34;;;27.63;37.57
14273;BME280;7220;49.450;11.052;2022-08-04T23:55:09;97722.31;;;27.58;37.46
14273;BME280;7220;49.450;11.052;2022-08-04T23:59:10;97722.25;;;27.51;37.61
